sensor_id;sensor_type;location;lat;lon;timestamp;temperature;humidity
27439;DHT22;14887;51.252;7.470;2023-03-01T00:01:58;-2.50;99.90
27439;DHT22;14887;51.252;7.470;2023-03-01T00:04:24;-2.50;99.90
27439;DHT22;14887;51.252;7.470;2023-03-01T00:06:49;-2.60;99.90
27439;DHT22;14887;51.252;7.470;2023-03-01T00:09:15;-2.60;99.90
27439;DHT22;14887;51.252;7.470;2023-03-01T00:11:42;-2.60;1.00
27439;DHT22;14887;51.252;7.470;2023-03-01T00:14:07;-2.60;99.90
27439;DHT22;14887;51.252;7.470;2023-03-01T00:16:37;-2.60;4.60
27439;DHT22;14887;51.252;7.470;2023-03-01T00:19:15;-2.60;92.60
27439;DHT22;14887;51.252;7.470;2023-03-01T00:21:41;-2.60;99.90
27439;DHT22;14887;51.252;7.470;2023-03-01T00:24:07;-2.60;99.90
27439;DHT22;14887;51.252;7.470;2023-03-01T00:26:32;-2.70;99.90
27439;DHT22;14887;51.252;7.470;2023-03-01T00:28:59;-2.60;51.80
27439;DHT22;14887;51.252;7.470;2023-03-01T00:31:27;-2.70;99.90
27439;DHT22;14887;51.252;7.470;2023-03-01T00:33:56;-2.70;99.90
27439;DHT22;14887;51.252;7.470;2023-03-01T00:36:24;-2.80;99.90
27439;DHT22;14887;51.252;7.470;2023-03-01T00:38:50;-2.80;1.00
27439;DHT22;14887;51.252;7.470;2023-03-01T00:41:18;-2.90;1.00
27439;DHT22;14887;51.252;7.470;2023-03-01T00:43:44;-3.00;1.00
27439;DHT22;14887;51.252;7.470;2023-03-01T00:46:12;-2.90;1.00
27439;DHT22;14887;51.252;7.470;2023-03-01T00:48:38;-3.00;1.00
27439;DHT22;14887;51.252;7.470;2023-03-01T00:51:08;-3.00;1.00
27439;DHT22;14887;51.252;7.470;2023-03-01T00:53:34;-3.00;1.00
27439;DHT22;14887;51.252;7.470;2023-03-01T00:56:00;-3.00;1.00
27439;DHT22;14887;51.252;7.470;2023-03-01T00:58:26;-3.10;1.00
27439;DHT22;14887;51.252;7.470;2023-03-01T01:00:52;-3.10;1.00
27439;DHT22;14887;51.252;7.470;2023-03-01T01:03:18;-3.10;1.00
27439;DHT22;14887;51.252;7.470;2023-03-01T01:05:44;-3.10;1.00
27439;DHT22;14887;51.252;7.470;2023-03-01T01:08:09;-3.20;1.00
27439;DHT22;14887;51.252;7.470;2023-03-01T01:10:35;-3.20;1.00
27439;DHT22;14887;51.252;7.470;2023-03-01T01:13:01;-3.20;1.00
27439;DHT22;14887;51.252;7.470;2023-03-01T01:15:26;-3.20;1.00
27439;DHT22;14887;51.252;7.470;2023-03-01T01:17:52;-3.20;1.00
27439;DHT22;14887;51.252;7.470;2023-03-01T01:20:18;-3.30;1.00
27439;DHT22;14887;51.252;7.470;2023-03-01T01:22:43;-3.30;1.00
27439;DHT22;14887;51.252;7.470;2023-03-01T01:25:09;-3.30;1.00
27439;DHT22;14887;51.252;7.470;2023-03-01T01:27:36;-3.30;1.00
27439;DHT22;14887;51.252;7.470;2023-03-01T01:30:02;-3.30;1.00
27439;DHT22;14887;51.252;7.470;2023-03-01T01:32:28;-3.30;1.00
27439;DHT22;14887;51.252;7.470;2023-03-01T01:34:53;-3.50;1.00
27439;DHT22;14887;51.252;7.470;2023-03-01T01:37:19;-3.50;7.80
27439;DHT22;14887;51.252;7.470;2023-03-01T01:39:44;-3.50;1.00
27439;DHT22;14887;51.252;7.470;2023-03-01T01:42:16;-3.60;97.30
27439;DHT22;14887;51.252;7.470;2023-03-01T01:44:44;-3.60;99.90
27439;DHT22;14887;51.252;7.470;2023-03-01T01:47:19;-3.70;99.90
27439;DHT22;14887;51.252;7.470;2023-03-01T01:49:49;-3.70;99.90
27439;DHT22;14887;51.252;7.470;2023-03-01T01:52:34;-3.80;99.90
27439;DHT22;14887;51.252;7.470;2023-03-01T01:55:11;-3.90;99.90
27439;DHT22;14887;51.252;7.470;2023-03-01T02:00:14;-3.90;99.90
27439;DHT22;14887;51.252;7.470;2023-03-01T02:02:40;-3.90;99.90
27439;DHT22;14887;51.252;7.470;2023-03-01T02:07:40;-4.00;99.90
27439;DHT22;14887;51.252;7.470;2023-03-01T02:10:07;-4.00;99.90
27439;DHT22;14887;51.252;7.470;2023-03-01T02:12:34;-4.10;99.90
27439;DHT22;14887;51.252;7.470;2023-03-01T02:15:01;-4.00;99.90
27439;DHT22;14887;51.252;7.470;2023-03-01T02:17:27;-4.00;99.90
27439;DHT22;14887;51.252;7.470;2023-03-01T02:20:13;-4.00;99.90
27439;DHT22;14887;51.252;7.470;2023-03-01T02:22:43;-4.10;99.90
27439;DHT22;14887;51.252;7.470;2023-03-01T02:27:58;-4.10;99.90
27439;DHT22;14887;51.252;7.470;2023-03-01T02:30:26;-4.20;99.90
27439;DHT22;14887;51.252;7.470;2023-03-01T02:32:54;-4.20;99.90
27439;DHT22;14887;51.252;7.470;2023-03-01T02:35:24;-4.20;99.90
27439;DHT22;14887;51.252;7.470;2023-03-01T02:37:50;-4.20;99.90
27439;DHT22;14887;51.252;7.470;2023-03-01T02:40:17;-4.10;99.90
27439;DHT22;14887;51.252;7.470;2023-03-01T02:42:49;-4.30;99.90
27439;DHT22;14887;51.252;7.470;2023-03-01T02:45:16;-4.30;99.90
27439;DHT22;14887;51.252;7.470;2023-03-01T02:47:42;-4.30;99.90
27439;DHT22;14887;51.252;7.470;2023-03-01T02:53:01;-4.30;99.90
27439;DHT22;14887;51.252;7.470;2023-03-01T02:55:30;-4.30;99.90
27439;DHT22;14887;51.252;7.470;2023-03-01T02:57:56;-4.30;99.90
27439;DHT22;14887;51.252;7.470;2023-03-01T03:00:30;-4.30;99.90
27439;DHT22;14887;51.252;7.470;2023-03-01T03:02:58;-4.30;99.90
27439;DHT22;14887;51.252;7.470;2023-03-01T03:05:29;-4.30;99.90
27439;DHT22;14887;51.252;7.470;2023-03-01T03:07:55;-4.30;99.90
27439;DHT22;14887;51.252;7.470;2023-03-01T03:10:25;-4.30;99.90
27439;DHT22;14887;51.252;7.470;2023-03-01T03:12:53;-4.30;1.00
27439;DHT22;14887;51.252;7.470;2023-03-01T03:15:20;-4.30;1.00
27439;DHT22;14887;51.252;7.470;2023-03-01T03:17:46;-4.30;99.90
27439;DHT22;14887;51.252;7.470;2023-03-01T03:20:15;-4.40;99.90
27439;DHT22;14887;51.252;7.470;2023-03-01T03:22:45;-4.40;1.00
27439;DHT22;14887;51.252;7.470;2023-03-01T03:25:12;-4.40;99.90
27439;DHT22;14887;51.252;7.470;2023-03-01T03:27:38;-4.40;99.90
27439;DHT22;14887;51.252;7.470;2023-03-01T03:30:07;-4.40;1.00
27439;DHT22;14887;51.252;7.470;2023-03-01T03:32:38;-4.50;1.00
27439;DHT22;14887;51.252;7.470;2023-03-01T03:35:06;-4.50;1.00
27439;DHT22;14887;51.252;7.470;2023-03-01T03:37:39;-4.50;1.00
27439;DHT22;14887;51.252;7.470;2023-03-01T03:40:23;-4.50;1.00
27439;DHT22;14887;51.252;7.470;2023-03-01T03:42:49;-4.50;1.00
27439;DHT22;14887;51.252;7.470;2023-03-01T03:45:16;-4.40;1.00
27439;DHT22;14887;51.252;7.470;2023-03-01T03:47:42;-4.40;1.00
27439;DHT22;14887;51.252;7.470;2023-03-01T03:50:13;-4.40;1.00
27439;DHT22;14887;51.252;7.470;2023-03-01T03:52:38;-4.30;1.00
27439;DHT22;14887;51.252;7.470;2023-03-01T03:55:06;-4.30;1.00
27439;DHT22;14887;51.252;7.470;2023-03-01T03:57:40;-4.30;1.00
27439;DHT22;14887;51.252;7.470;2023-03-01T04:00:09;-4.30;1.00
27439;DHT22;14887;51.252;7.470;2023-03-01T04:02:42;-4.30;1.00
27439;DHT22;14887;51.252;7.470;2023-03-01T04:05:09;-4.40;99.90
27439;DHT22;14887;51.252;7.470;2023-03-01T04:07:36;-4.40;99.90
27439;DHT22;14887;51.252;7.470;2023-03-01T04:10:08;-4.50;99.90
27439;DHT22;14887;51.252;7.470;2023-03-01T04:12:34;-4.50;1.00
27439;DHT22;14887;51.252;7.470;2023-03-01T04:15:05;-4.60;1.00
27439;DHT22;14887;51.252;7.470;2023-03-01T04:17:41;-4.50;1.00
27439;DHT22;14887;51.252;7.470;2023-03-01T04:20:09;-4.50;1.00
27439;DHT22;14887;51.252;7.470;2023-03-01T04:22:34;-4.50;1.00
27439;DHT22;14887;51.252;7.470;2023-03-01T04:25:00;-4.50;1.00
27439;DHT22;14887;51.252;7.470;2023-03-01T04:27:27;-4.50;1.00
27439;DHT22;14887;51.252;7.470;2023-03-01T04:29:52;-4.50;1.00
27439;DHT22;14887;51.252;7.470;2023-03-01T04:32:18;-4.50;1.00
27439;DHT22;14887;51.252;7.470;2023-03-01T04:34:44;-4.60;1.00
27439;DHT22;14887;51.252;7.470;2023-03-01T04:37:09;-4.70;1.00
27439;DHT22;14887;51.252;7.470;2023-03-01T04:39:35;-4.70;1.00
27439;DHT22;14887;51.252;7.470;2023-03-01T04:42:14;-4.80;1.00
27439;DHT22;14887;51.252;7.470;2023-03-01T04:44:39;-4.80;1.00
27439;DHT22;14887;51.252;7.470;2023-03-01T04:47:05;-4.90;1.00
27439;DHT22;14887;51.252;7.470;2023-03-01T04:49:31;-4.90;1.00
27439;DHT22;14887;51.252;7.470;2023-03-01T04:51:57;-4.80;1.00
27439;DHT22;14887;51.252;7.470;2023-03-01T04:54:30;-5.00;1.00
27439;DHT22;14887;51.252;7.470;2023-03-01T04:56:55;-5.00;1.00
27439;DHT22;14887;51.252;7.470;2023-03-01T04:59:21;-5.00;1.00
27439;DHT22;14887;51.252;7.470;2023-03-01T05:01:49;-5.00;1.00
27439;DHT22;14887;51.252;7.470;2023-03-01T05:04:14;-5.00;1.00
27439;DHT22;14887;51.252;7.470;2023-03-01T05:06:40;-4.90;1.00
27439;DHT22;14887;51.252;7.470;2023-03-01T05:09:06;-5.00;1.00
27439;DHT22;14887;51.252;7.470;2023-03-01T05:11:32;-4.90;1.00
27439;DHT22;14887;51.252;7.470;2023-03-01T05:14:01;-4.90;1.00
27439;DHT22;14887;51.252;7.470;2023-03-01T05:16:27;-4.70;1.00
27439;DHT22;14887;51.252;7.470;2023-03-01T05:18:53;-4.70;1.00
27439;DHT22;14887;51.252;7.470;2023-03-01T05:21:20;-4.60;1.00
27439;DHT22;14887;51.252;7.470;2023-03-01T05:23:46;-4.60;1.00
27439;DHT22;14887;51.252;7.470;2023-03-01T05:26:12;-4.70;1.00
27439;DHT22;14887;51.252;7.470;2023-03-01T05:28:39;-4.70;1.00
27439;DHT22;14887;51.252;7.470;2023-03-01T05:31:06;-4.70;1.00
27439;DHT22;14887;51.252;7.470;2023-03-01T05:33:38;-4.60;1.00
27439;DHT22;14887;51.252;7.470;2023-03-01T05:36:05;-4.70;1.00
27439;DHT22;14887;51.252;7.470;2023-03-01T05:38:32;-4.80;1.00
27439;DHT22;14887;51.252;7.470;2023-03-01T05:40:58;-4.80;1.00
27439;DHT22;14887;51.252;7.470;2023-03-01T05:43:23;-4.90;1.00
27439;DHT22;14887;51.252;7.470;2023-03-01T05:45:49;-5.00;1.00
27439;DHT22;14887;51.252;7.470;2023-03-01T05:48:14;-5.10;1.00
27439;DHT22;14887;51.252;7.470;2023-03-01T05:50:42;-5.10;1.00
27439;DHT22;14887;51.252;7.470;2023-03-01T05:53:16;-5.20;1.00
27439;DHT22;14887;51.252;7.470;2023-03-01T05:55:43;-5.20;1.00
27439;DHT22;14887;51.252;7.470;2023-03-01T05:58:11;-5.30;1.00
27439;DHT22;14887;51.252;7.470;2023-03-01T06:00:39;-5.30;1.00
27439;DHT22;14887;51.252;7.470;2023-03-01T06:03:05;-5.40;1.00
27439;DHT22;14887;51.252;7.470;2023-03-01T06:05:31;-5.30;1.00
27439;DHT22;14887;51.252;7.470;2023-03-01T06:08:01;-5.40;1.00
27439;DHT22;14887;51.252;7.470;2023-03-01T06:10:27;-5.40;1.00
27439;DHT22;14887;51.252;7.470;2023-03-01T06:12:53;-5.40;1.00
27439;DHT22;14887;51.252;7.470;2023-03-01T06:15:19;-5.30;1.00
27439;DHT22;14887;51.252;7.470;2023-03-01T06:17:46;-5.40;1.00
27439;DHT22;14887;51.252;7.470;2023-03-01T06:20:23;-5.40;1.00
27439;DHT22;14887;51.252;7.470;2023-03-01T06:22:49;-5.40;1.00
27439;DHT22;14887;51.252;7.470;2023-03-01T06:25:17;-5.40;1.00
27439;DHT22;14887;51.252;7.470;2023-03-01T06:27:43;-5.40;1.00
27439;DHT22;14887;51.252;7.470;2023-03-01T06:30:12;-5.40;1.00
27439;DHT22;14887;51.252;7.470;2023-03-01T06:32:39;-5.30;1.00
27439;DHT22;14887;51.252;7.470;2023-03-01T06:35:09;-5.30;1.00
27439;DHT22;14887;51.252;7.470;2023-03-01T06:37:36;-5.30;1.00
27439;DHT22;14887;51.252;7.470;2023-03-01T06:40:05;-5.20;1.00
27439;DHT22;14887;51.252;7.470;2023-03-01T06:42:38;-5.20;1.00
27439;DHT22;14887;51.252;7.470;2023-03-01T06:45:05;-5.10;1.00
27439;DHT22;14887;51.252;7.470;2023-03-01T06:47:32;-5.20;1.00
27439;DHT22;14887;51.252;7.470;2023-03-01T06:49:59;-5.10;1.00
27439;DHT22;14887;51.252;7.470;2023-03-01T06:52:25;-5.10;1.00
27439;DHT22;14887;51.252;7.470;2023-03-01T06:54:51;-5.00;1.00
27439;DHT22;14887;51.252;7.470;2023-03-01T06:57:16;-4.80;1.00
27439;DHT22;14887;51.252;7.470;2023-03-01T06:59:42;-4.80;1.00
27439;DHT22;14887;51.252;7.470;2023-03-01T07:02:10;-4.70;1.00
27439;DHT22;14887;51.252;7.470;2023-03-01T07:04:37;-4.60;1.00
27439;DHT22;14887;51.252;7.470;2023-03-01T07:07:02;-4.60;1.00
27439;DHT22;14887;51.252;7.470;2023-03-01T07:09:28;-4.50;1.00
27439;DHT22;14887;51.252;7.470;2023-03-01T07:11:54;-4.60;1.00
27439;DHT22;14887;51.252;7.470;2023-03-01T07:14:19;-4.50;1.00
27439;DHT22;14887;51.252;7.470;2023-03-01T07:16:45;-4.30;1.00
27439;DHT22;14887;51.252;7.470;2023-03-01T07:19:11;-4.20;1.00
27439;DHT22;14887;51.252;7.470;2023-03-01T07:21:37;-4.20;1.00
27439;DHT22;14887;51.252;7.470;2023-03-01T07:24:08;-4.10;99.90
27439;DHT22;14887;51.252;7.470;2023-03-01T07:26:34;-4.00;99.90
27439;DHT22;14887;51.252;7.470;2023-03-01T07:29:01;-4.00;99.90
27439;DHT22;14887;51.252;7.470;2023-03-01T07:31:26;-3.80;99.90
27439;DHT22;14887;51.252;7.470;2023-03-01T07:33:55;-3.80;99.90
27439;DHT22;14887;51.252;7.470;2023-03-01T07:36:21;-3.80;99.90
27439;DHT22;14887;51.252;7.470;2023-03-01T07:38:46;-3.70;99.90
27439;DHT22;14887;51.252;7.470;2023-03-01T07:41:12;-3.70;99.90
27439;DHT22;14887;51.252;7.470;2023-03-01T07:43:37;-3.60;99.90
27439;DHT22;14887;51.252;7.470;2023-03-01T07:46:04;-3.60;99.90
27439;DHT22;14887;51.252;7.470;2023-03-01T07:48:30;-3.50;99.90
27439;DHT22;14887;51.252;7.470;2023-03-01T07:51:01;-3.40;99.90
27439;DHT22;14887;51.252;7.470;2023-03-01T07:53:27;-3.40;99.90
27439;DHT22;14887;51.252;7.470;2023-03-01T07:56:11;-3.10;99.90
27439;DHT22;14887;51.252;7.470;2023-03-01T07:58:39;-2.20;99.90
27439;DHT22;14887;51.252;7.470;2023-03-01T08:01:07;-1.00;1.00
27439;DHT22;14887;51.252;7.470;2023-03-01T08:03:34;0.20;1.00
27439;DHT22;14887;51.252;7.470;2023-03-01T08:06:00;1.10;32.10
27439;DHT22;14887;51.252;7.470;2023-03-01T08:08:26;1.90;1.00
27439;DHT22;14887;51.252;7.470;2023-03-01T08:10:52;2.50;99.90
27439;DHT22;14887;51.252;7.470;2023-03-01T08:13:18;2.70;99.90
27439;DHT22;14887;51.252;7.470;2023-03-01T08:15:48;2.90;24.10
27439;DHT22;14887;51.252;7.470;2023-03-01T08:18:15;3.20;1.00
27439;DHT22;14887;51.252;7.470;2023-03-01T08:20:41;3.40;1.00
27439;DHT22;14887;51.252;7.470;2023-03-01T08:23:06;3.40;1.00
27439;DHT22;14887;51.252;7.470;2023-03-01T08:25:32;3.90;1.00
27439;DHT22;14887;51.252;7.470;2023-03-01T08:27:57;4.10;1.00
27439;DHT22;14887;51.252;7.470;2023-03-01T08:30:23;4.60;1.00
27439;DHT22;14887;51.252;7.470;2023-03-01T08:32:49;4.60;1.00
27439;DHT22;14887;51.252;7.470;2023-03-01T08:35:15;4.60;1.00
27439;DHT22;14887;51.252;7.470;2023-03-01T08:37:41;4.90;1.00
27439;DHT22;14887;51.252;7.470;2023-03-01T08:40:07;5.00;1.00
27439;DHT22;14887;51.252;7.470;2023-03-01T08:42:33;5.30;1.00
27439;DHT22;14887;51.252;7.470;2023-03-01T08:44:58;5.30;1.00
27439;DHT22;14887;51.252;7.470;2023-03-01T08:47:24;5.50;1.00
27439;DHT22;14887;51.252;7.470;2023-03-01T08:49:50;5.60;1.00
27439;DHT22;14887;51.252;7.470;2023-03-01T08:52:16;5.80;1.00
27439;DHT22;14887;51.252;7.470;2023-03-01T08:54:41;5.60;1.00
27439;DHT22;14887;51.252;7.470;2023-03-01T08:57:07;5.70;1.00
27439;DHT22;14887;51.252;7.470;2023-03-01T08:59:34;5.30;1.00
27439;DHT22;14887;51.252;7.470;2023-03-01T09:02:03;5.50;1.00
27439;DHT22;14887;51.252;7.470;2023-03-01T09:04:29;5.40;1.00
27439;DHT22;14887;51.252;7.470;2023-03-01T09:06:55;5.80;1.00
27439;DHT22;14887;51.252;7.470;2023-03-01T09:09:20;5.70;1.00
27439;DHT22;14887;51.252;7.470;2023-03-01T09:11:46;5.50;1.00
27439;DHT22;14887;51.252;7.470;2023-03-01T09:14:13;5.80;1.00
27439;DHT22;14887;51.252;7.470;2023-03-01T09:16:38;5.80;1.00
27439;DHT22;14887;51.252;7.470;2023-03-01T09:19:05;5.70;1.00
27439;DHT22;14887;51.252;7.470;2023-03-01T09:21:31;5.70;1.00
27439;DHT22;14887;51.252;7.470;2023-03-01T09:23:57;5.70;1.00
27439;DHT22;14887;51.252;7.470;2023-03-01T09:26:24;5.50;99.90
27439;DHT22;14887;51.252;7.470;2023-03-01T09:28:53;5.40;99.90
27439;DHT22;14887;51.252;7.470;2023-03-01T09:31:20;5.10;99.90
27439;DHT22;14887;51.252;7.470;2023-03-01T09:33:48;4.70;99.90
27439;DHT22;14887;51.252;7.470;2023-03-01T09:36:18;4.80;99.90
27439;DHT22;14887;51.252;7.470;2023-03-01T09:38:44;4.60;99.90
27439;DHT22;14887;51.252;7.470;2023-03-01T09:44:10;4.60;1.00
27439;DHT22;14887;51.252;7.470;2023-03-01T09:46:43;4.90;1.00
27439;DHT22;14887;51.252;7.470;2023-03-01T09:49:14;5.30;1.00
27439;DHT22;14887;51.252;7.470;2023-03-01T09:51:54;5.40;99.90
27439;DHT22;14887;51.252;7.470;2023-03-01T09:54:20;5.70;1.00
27439;DHT22;14887;51.252;7.470;2023-03-01T09:57:19;5.70;99.90
27439;DHT22;14887;51.252;7.470;2023-03-01T10:02:45;6.30;99.90
27439;DHT22;14887;51.252;7.470;2023-03-01T10:05:31;6.30;99.90
27439;DHT22;14887;51.252;7.470;2023-03-01T10:08:34;6.40;99.90
27439;DHT22;14887;51.252;7.470;2023-03-01T10:11:03;6.50;99.90
27439;DHT22;14887;51.252;7.470;2023-03-01T10:13:42;6.60;99.90
27439;DHT22;14887;51.252;7.470;2023-03-01T10:16:14;6.60;99.90
27439;DHT22;14887;51.252;7.470;2023-03-01T10:18:43;7.00;99.90
27439;DHT22;14887;51.252;7.470;2023-03-01T10:21:19;6.90;99.90
27439;DHT22;14887;51.252;7.470;2023-03-01T10:23:46;7.20;99.90
27439;DHT22;14887;51.252;7.470;2023-03-01T10:31:25;7.00;99.90
27439;DHT22;14887;51.252;7.470;2023-03-01T10:33:54;6.70;99.90
27439;DHT22;14887;51.252;7.470;2023-03-01T10:36:22;6.80;99.90
27439;DHT22;14887;51.252;7.470;2023-03-01T10:38:54;6.90;99.90
27439;DHT22;14887;51.252;7.470;2023-03-01T10:41:21;6.80;99.90
27439;DHT22;14887;51.252;7.470;2023-03-01T10:43:55;6.80;99.90
27439;DHT22;14887;51.252;7.470;2023-03-01T10:46:35;7.10;99.90
27439;DHT22;14887;51.252;7.470;2023-03-01T10:49:18;7.20;99.90
27439;DHT22;14887;51.252;7.470;2023-03-01T10:51:46;7.30;99.90
27439;DHT22;14887;51.252;7.470;2023-03-01T10:54:30;7.30;99.90
27439;DHT22;14887;51.252;7.470;2023-03-01T10:56:59;7.30;99.90
27439;DHT22;14887;51.252;7.470;2023-03-01T10:59:36;7.10;99.90
27439;DHT22;14887;51.252;7.470;2023-03-01T11:04:29;7.40;99.90
27439;DHT22;14887;51.252;7.470;2023-03-01T11:06:59;7.40;99.90
27439;DHT22;14887;51.252;7.470;2023-03-01T11:09:25;7.50;99.90
27439;DHT22;14887;51.252;7.470;2023-03-01T11:11:59;7.50;99.90
27439;DHT22;14887;51.252;7.470;2023-03-01T11:14:39;7.80;99.90
27439;DHT22;14887;51.252;7.470;2023-03-01T11:17:26;7.90;99.90
27439;DHT22;14887;51.252;7.470;2023-03-01T11:20:01;7.80;99.90
27439;DHT22;14887;51.252;7.470;2023-03-01T11:22:27;7.70;99.90
27439;DHT22;14887;51.252;7.470;2023-03-01T11:24:55;7.60;99.90
27439;DHT22;14887;51.252;7.470;2023-03-01T11:27:28;7.20;99.90
27439;DHT22;14887;51.252;7.470;2023-03-01T11:32:34;7.20;99.90
27439;DHT22;14887;51.252;7.470;2023-03-01T11:35:17;7.40;99.90
27439;DHT22;14887;51.252;7.470;2023-03-01T11:40:29;7.80;99.90
27439;DHT22;14887;51.252;7.470;2023-03-01T11:43:06;8.40;99.90
27439;DHT22;14887;51.252;7.470;2023-03-01T11:45:47;8.10;99.90
27439;DHT22;14887;51.252;7.470;2023-03-01T11:51:09;8.40;99.90
27439;DHT22;14887;51.252;7.470;2023-03-01T11:56:43;8.60;99.90
27439;DHT22;14887;51.252;7.470;2023-03-01T12:10:42;9.40;99.90
27439;DHT22;14887;51.252;7.470;2023-03-01T12:13:27;9.60;99.90
27439;DHT22;14887;51.252;7.470;2023-03-01T12:21:53;9.70;99.90
27439;DHT22;14887;51.252;7.470;2023-03-01T12:24:44;9.40;99.90
27439;DHT22;14887;51.252;7.470;2023-03-01T12:27:26;9.50;99.90
27439;DHT22;14887;51.252;7.470;2023-03-01T12:30:25;9.60;99.90
27439;DHT22;14887;51.252;7.470;2023-03-01T12:33:01;9.30;99.90
27439;DHT22;14887;51.252;7.470;2023-03-01T12:35:43;9.30;99.90
27439;DHT22;14887;51.252;7.470;2023-03-01T12:38:42;8.90;99.90
27439;DHT22;14887;51.252;7.470;2023-03-01T12:41:28;9.20;99.90
27439;DHT22;14887;51.252;7.470;2023-03-01T12:46:48;9.30;99.90
27439;DHT22;14887;51.252;7.470;2023-03-01T12:49:23;8.90;99.90
27439;DHT22;14887;51.252;7.470;2023-03-01T12:51:58;9.00;99.90
27439;DHT22;14887;51.252;7.470;2023-03-01T12:54:31;9.00;99.90
27439;DHT22;14887;51.252;7.470;2023-03-01T12:57:02;9.20;99.90
27439;DHT22;14887;51.252;7.470;2023-03-01T12:59:48;9.20;99.90
27439;DHT22;14887;51.252;7.470;2023-03-01T13:02:22;9.70;99.90
27439;DHT22;14887;51.252;7.470;2023-03-01T13:05:17;10.10;99.90
27439;DHT22;14887;51.252;7.470;2023-03-01T13:07:59;10.50;99.90
27439;DHT22;14887;51.252;7.470;2023-03-01T13:13:26;10.60;99.90
27439;DHT22;14887;51.252;7.470;2023-03-01T13:15:52;10.60;99.90
27439;DHT22;14887;51.252;7.470;2023-03-01T13:20:50;10.60;99.90
27439;DHT22;14887;51.252;7.470;2023-03-01T13:31:01;10.40;99.90
27439;DHT22;14887;51.252;7.470;2023-03-01T13:35:53;10.70;99.90
27439;DHT22;14887;51.252;7.470;2023-03-01T13:38:48;10.60;99.90
27439;DHT22;14887;51.252;7.470;2023-03-01T13:46:51;11.50;99.90
27439;DHT22;14887;51.252;7.470;2023-03-01T13:49:23;12.10;99.90
27439;DHT22;14887;51.252;7.470;2023-03-01T13:51:51;12.80;99.90
27439;DHT22;14887;51.252;7.470;2023-03-01T13:54:26;13.00;99.90
27439;DHT22;14887;51.252;7.470;2023-03-01T13:56:54;13.20;99.90
27439;DHT22;14887;51.252;7.470;2023-03-01T13:59:21;13.20;99.90
27439;DHT22;14887;51.252;7.470;2023-03-01T14:01:55;13.20;99.90
27439;DHT22;14887;51.252;7.470;2023-03-01T14:04:32;13.50;99.90
27439;DHT22;14887;51.252;7.470;2023-03-01T14:07:20;13.70;99.90
27439;DHT22;14887;51.252;7.470;2023-03-01T14:09:49;13.30;99.90
27439;DHT22;14887;51.252;7.470;2023-03-01T14:12:51;13.40;99.90
27439;DHT22;14887;51.252;7.470;2023-03-01T14:15:31;13.20;99.90
27439;DHT22;14887;51.252;7.470;2023-03-01T14:20:42;14.00;99.90
27439;DHT22;14887;51.252;7.470;2023-03-01T14:23:18;13.70;99.90
27439;DHT22;14887;51.252;7.470;2023-03-01T14:25:50;14.10;99.90
27439;DHT22;14887;51.252;7.470;2023-03-01T14:30:51;13.10;99.90
27439;DHT22;14887;51.252;7.470;2023-03-01T14:33:26;13.10;99.90
27439;DHT22;14887;51.252;7.470;2023-03-01T14:35:57;14.10;99.90
27439;DHT22;14887;51.252;7.470;2023-03-01T14:38:30;15.00;99.90
27439;DHT22;14887;51.252;7.470;2023-03-01T14:40:59;15.60;99.90
27439;DHT22;14887;51.252;7.470;2023-03-01T14:43:27;14.80;99.90
27439;DHT22;14887;51.252;7.470;2023-03-01T14:45:54;13.80;99.90
27439;DHT22;14887;51.252;7.470;2023-03-01T14:48:20;12.90;99.90
27439;DHT22;14887;51.252;7.470;2023-03-01T14:50:46;13.20;99.90
27439;DHT22;14887;51.252;7.470;2023-03-01T14:53:23;13.50;99.90
27439;DHT22;14887;51.252;7.470;2023-03-01T14:55:55;13.10;99.90
27439;DHT22;14887;51.252;7.470;2023-03-01T14:58:24;13.30;99.90
27439;DHT22;14887;51.252;7.470;2023-03-01T15:00:58;13.10;99.90
27439;DHT22;14887;51.252;7.470;2023-03-01T15:05:57;13.30;99.90
27439;DHT22;14887;51.252;7.470;2023-03-01T15:08:24;14.00;99.90
27439;DHT22;14887;51.252;7.470;2023-03-01T15:11:19;13.80;99.90
27439;DHT22;14887;51.252;7.470;2023-03-01T15:13:47;14.50;99.90
27439;DHT22;14887;51.252;7.470;2023-03-01T15:16:16;14.00;99.90
27439;DHT22;14887;51.252;7.470;2023-03-01T15:18:48;13.50;99.90
27439;DHT22;14887;51.252;7.470;2023-03-01T15:21:21;13.40;99.90
27439;DHT22;14887;51.252;7.470;2023-03-01T15:23:53;13.70;99.90
27439;DHT22;14887;51.252;7.470;2023-03-01T15:26:43;14.00;99.90
27439;DHT22;14887;51.252;7.470;2023-03-01T15:29:18;14.20;99.90
27439;DHT22;14887;51.252;7.470;2023-03-01T15:31:58;13.40;99.90
27439;DHT22;14887;51.252;7.470;2023-03-01T15:34:35;13.30;99.90
27439;DHT22;14887;51.252;7.470;2023-03-01T15:37:04;13.40;99.90
27439;DHT22;14887;51.252;7.470;2023-03-01T15:39:40;12.70;99.90
27439;DHT22;14887;51.252;7.470;2023-03-01T15:42:17;12.30;99.90
27439;DHT22;14887;51.252;7.470;2023-03-01T15:45:21;12.30;99.90
27439;DHT22;14887;51.252;7.470;2023-03-01T15:47:58;11.70;99.90
27439;DHT22;14887;51.252;7.470;2023-03-01T15:50:31;11.70;99.90
27439;DHT22;14887;51.252;7.470;2023-03-01T15:53:04;11.70;99.90
27439;DHT22;14887;51.252;7.470;2023-03-01T15:55:32;11.30;99.90
27439;DHT22;14887;51.252;7.470;2023-03-01T15:58:01;10.60;99.90
27439;DHT22;14887;51.252;7.470;2023-03-01T16:00:28;10.10;99.90
27439;DHT22;14887;51.252;7.470;2023-03-01T16:02:54;9.90;99.90
27439;DHT22;14887;51.252;7.470;2023-03-01T16:05:29;9.90;99.90
27439;DHT22;14887;51.252;7.470;2023-03-01T16:07:56;9.90;99.90
27439;DHT22;14887;51.252;7.470;2023-03-01T16:10:22;9.80;99.90
27439;DHT22;14887;51.252;7.470;2023-03-01T16:12:49;9.30;99.90
27439;DHT22;14887;51.252;7.470;2023-03-01T16:15:24;9.10;99.90
27439;DHT22;14887;51.252;7.470;2023-03-01T16:17:50;8.60;99.90
27439;DHT22;14887;51.252;7.470;2023-03-01T16:20:18;8.00;99.90
27439;DHT22;14887;51.252;7.470;2023-03-01T16:22:44;7.70;99.90
27439;DHT22;14887;51.252;7.470;2023-03-01T16:25:15;7.30;99.90
27439;DHT22;14887;51.252;7.470;2023-03-01T16:27:42;7.00;99.90
27439;DHT22;14887;51.252;7.470;2023-03-01T16:30:09;6.90;99.90
27439;DHT22;14887;51.252;7.470;2023-03-01T16:32:42;6.60;99.90
27439;DHT22;14887;51.252;7.470;2023-03-01T16:35:10;6.50;99.90
27439;DHT22;14887;51.252;7.470;2023-03-01T16:37:37;6.40;99.90
27439;DHT22;14887;51.252;7.470;2023-03-01T16:40:03;6.20;99.90
27439;DHT22;14887;51.252;7.470;2023-03-01T16:42:36;5.90;99.90
27439;DHT22;14887;51.252;7.470;2023-03-01T16:45:03;5.90;99.90
27439;DHT22;14887;51.252;7.470;2023-03-01T16:47:29;5.80;99.90
27439;DHT22;14887;51.252;7.470;2023-03-01T16:49:55;5.60;99.90
27439;DHT22;14887;51.252;7.470;2023-03-01T16:52:22;5.30;99.90
27439;DHT22;14887;51.252;7.470;2023-03-01T16:54:47;4.90;99.90
27439;DHT22;14887;51.252;7.470;2023-03-01T16:57:13;4.40;99.90
27439;DHT22;14887;51.252;7.470;2023-03-01T16:59:39;4.00;99.90
27439;DHT22;14887;51.252;7.470;2023-03-01T17:02:06;3.70;99.90
27439;DHT22;14887;51.252;7.470;2023-03-01T17:04:33;3.40;99.90
27439;DHT22;14887;51.252;7.470;2023-03-01T17:06:58;3.10;1.00
27439;DHT22;14887;51.252;7.470;2023-03-01T17:09:24;3.00;1.00
27439;DHT22;14887;51.252;7.470;2023-03-01T17:11:49;2.90;1.00
27439;DHT22;14887;51.252;7.470;2023-03-01T17:14:15;2.60;1.00
27439;DHT22;14887;51.252;7.470;2023-03-01T17:16:42;2.60;1.00
27439;DHT22;14887;51.252;7.470;2023-03-01T17:19:08;2.50;1.00
27439;DHT22;14887;51.252;7.470;2023-03-01T17:21:34;2.40;1.00
27439;DHT22;14887;51.252;7.470;2023-03-01T17:24:00;2.40;1.00